sensor_id;sensor_type;location;lat;lon;timestamp;temperature;humidity
1702;DHT22;848;48.354;10.064;2022-10-17T00:01:01;10.60;99.90
1702;DHT22;848;48.354;10.064;2022-10-17T00:03:28;10.60;99.90
1702;DHT22;848;48.354;10.064;2022-10-17T00:05:55;10.60;99.90
1702;DHT22;848;48.354;10.064;2022-10-17T00:08:22;10.60;99.90
1702;DHT22;848;48.354;10.064;2022-10-17T00:10:57;10.60;99.90
1702;DHT22;848;48.354;10.064;2022-10-17T00:13:26;10.50;99.90
1702;DHT22;848;48.354;10.064;2022-10-17T00:15:53;10.50;99.90
1702;DHT22;848;48.354;10.064;2022-10-17T00:18:20;10.50;99.90
1702;DHT22;848;48.354;10.064;2022-10-17T00:20:47;10.50;99.90
1702;DHT22;848;48.354;10.064;2022-10-17T00:23:14;10.50;99.90
1702;DHT22;848;48.354;10.064;2022-10-17T00:25:41;10.50;99.90
1702;DHT22;848;48.354;10.064;2022-10-17T00:28:09;10.50;99.90
1702;DHT22;848;48.354;10.064;2022-10-17T00:30:37;10.50;99.90
1702;DHT22;848;48.354;10.064;2022-10-17T00:33:05;10.40;99.90
1702;DHT22;848;48.354;10.064;2022-10-17T00:35:32;10.40;99.90
1702;DHT22;848;48.354;10.064;2022-10-17T00:37:59;10.40;99.90
1702;DHT22;848;48.354;10.064;2022-10-17T00:40:26;10.40;99.90
1702;DHT22;848;48.354;10.064;2022-10-17T00:42:52;10.40;99.90
1702;DHT22;848;48.354;10.064;2022-10-17T00:45:22;10.30;99.90
1702;DHT22;848;48.354;10.064;2022-10-17T00:47:54;10.20;99.90
1702;DHT22;848;48.354;10.064;2022-10-17T00:50:23;10.20;99.90
1702;DHT22;848;48.354;10.064;2022-10-17T00:52:51;10.20;99.90
1702;DHT22;848;48.354;10.064;2022-10-17T00:55:21;10.20;99.90
1702;DHT22;848;48.354;10.064;2022-10-17T00:57:49;10.20;99.90
1702;DHT22;848;48.354;10.064;2022-10-17T01:00:16;10.20;99.90
1702;DHT22;848;48.354;10.064;2022-10-17T01:02:44;10.20;99.90
1702;DHT22;848;48.354;10.064;2022-10-17T01:05:40;10.20;99.90
1702;DHT22;848;48.354;10.064;2022-10-17T01:08:08;10.10;99.90
1702;DHT22;848;48.354;10.064;2022-10-17T01:10:42;10.10;99.90
1702;DHT22;848;48.354;10.064;2022-10-17T01:13:14;10.10;99.90
1702;DHT22;848;48.354;10.064;2022-10-17T01:15:50;10.10;99.90
1702;DHT22;848;48.354;10.064;2022-10-17T01:18:31;10.00;99.90
1702;DHT22;848;48.354;10.064;2022-10-17T01:21:32;10.00;99.90
1702;DHT22;848;48.354;10.064;2022-10-17T01:27:35;10.00;99.90
1702;DHT22;848;48.354;10.064;2022-10-17T01:30:25;10.00;99.90
1702;DHT22;848;48.354;10.064;2022-10-17T01:32:59;10.00;99.90
1702;DHT22;848;48.354;10.064;2022-10-17T01:35:35;9.90;99.90
1702;DHT22;848;48.354;10.064;2022-10-17T01:38:08;9.90;99.90
1702;DHT22;848;48.354;10.064;2022-10-17T01:40:40;9.90;99.90
1702;DHT22;848;48.354;10.064;2022-10-17T01:43:14;9.90;99.90
1702;DHT22;848;48.354;10.064;2022-10-17T01:45:46;9.90;99.90
1702;DHT22;848;48.354;10.064;2022-10-17T01:48:17;9.80;99.90
1702;DHT22;848;48.354;10.064;2022-10-17T01:50:49;9.90;99.90
1702;DHT22;848;48.354;10.064;2022-10-17T01:53:20;9.90;99.90
1702;DHT22;848;48.354;10.064;2022-10-17T01:55:49;9.90;99.90
1702;DHT22;848;48.354;10.064;2022-10-17T01:58:22;9.80;99.90
1702;DHT22;848;48.354;10.064;2022-10-17T02:00:52;9.80;99.90
1702;DHT22;848;48.354;10.064;2022-10-17T02:03:23;9.70;99.90
1702;DHT22;848;48.354;10.064;2022-10-17T02:05:51;9.70;99.90
1702;DHT22;848;48.354;10.064;2022-10-17T02:08:26;9.70;99.90
1702;DHT22;848;48.354;10.064;2022-10-17T02:10:56;9.60;99.90
1702;DHT22;848;48.354;10.064;2022-10-17T02:13:34;9.60;99.90
1702;DHT22;848;48.354;10.064;2022-10-17T02:16:13;9.60;99.90
1702;DHT22;848;48.354;10.064;2022-10-17T02:18:59;9.60;99.90
1702;DHT22;848;48.354;10.064;2022-10-17T02:21:32;9.60;99.90
1702;DHT22;848;48.354;10.064;2022-10-17T02:24:06;9.60;99.90
1702;DHT22;848;48.354;10.064;2022-10-17T02:26:41;9.60;99.90
1702;DHT22;848;48.354;10.064;2022-10-17T02:29:13;9.50;99.90
1702;DHT22;848;48.354;10.064;2022-10-17T02:31:44;9.50;99.90
1702;DHT22;848;48.354;10.064;2022-10-17T02:34:17;9.50;99.90
1702;DHT22;848;48.354;10.064;2022-10-17T02:36:52;9.60;99.90
1702;DHT22;848;48.354;10.064;2022-10-17T02:39:21;9.60;99.90
1702;DHT22;848;48.354;10.064;2022-10-17T02:41:50;9.70;99.90
1702;DHT22;848;48.354;10.064;2022-10-17T02:44:19;9.70;99.90
1702;DHT22;848;48.354;10.064;2022-10-17T02:46:51;9.70;99.90
1702;DHT22;848;48.354;10.064;2022-10-17T02:49:24;9.60;99.90
1702;DHT22;848;48.354;10.064;2022-10-17T02:51:59;9.60;99.90
1702;DHT22;848;48.354;10.064;2022-10-17T02:54:30;9.60;99.90
1702;DHT22;848;48.354;10.064;2022-10-17T02:57:02;9.60;99.90
1702;DHT22;848;48.354;10.064;2022-10-17T02:59:33;9.60;99.90
1702;DHT22;848;48.354;10.064;2022-10-17T03:02:02;9.60;99.90
1702;DHT22;848;48.354;10.064;2022-10-17T03:04:31;9.60;99.90
1702;DHT22;848;48.354;10.064;2022-10-17T03:06:59;9.50;99.90
1702;DHT22;848;48.354;10.064;2022-10-17T03:09:26;9.40;99.90
1702;DHT22;848;48.354;10.064;2022-10-17T03:11:53;9.40;99.90
1702;DHT22;848;48.354;10.064;2022-10-17T03:14:20;9.40;99.90
1702;DHT22;848;48.354;10.064;2022-10-17T03:16:47;9.40;99.90
1702;DHT22;848;48.354;10.064;2022-10-17T03:19:13;9.40;99.90
1702;DHT22;848;48.354;10.064;2022-10-17T03:21:42;9.40;99.90
1702;DHT22;848;48.354;10.064;2022-10-17T03:24:09;9.30;99.90
1702;DHT22;848;48.354;10.064;2022-10-17T03:26:35;9.30;99.90
1702;DHT22;848;48.354;10.064;2022-10-17T03:29:02;9.30;99.90
1702;DHT22;848;48.354;10.064;2022-10-17T03:31:29;9.30;99.90
1702;DHT22;848;48.354;10.064;2022-10-17T03:33:56;9.30;99.90
1702;DHT22;848;48.354;10.064;2022-10-17T03:36:23;9.30;99.90
1702;DHT22;848;48.354;10.064;2022-10-17T03:38:54;9.30;99.90
1702;DHT22;848;48.354;10.064;2022-10-17T03:41:21;9.30;99.90
1702;DHT22;848;48.354;10.064;2022-10-17T03:43:48;9.20;99.90
1702;DHT22;848;48.354;10.064;2022-10-17T03:46:15;9.20;99.90
1702;DHT22;848;48.354;10.064;2022-10-17T03:48:42;9.20;99.90
1702;DHT22;848;48.354;10.064;2022-10-17T03:51:09;9.20;99.90
1702;DHT22;848;48.354;10.064;2022-10-17T03:53:36;9.30;99.90
1702;DHT22;848;48.354;10.064;2022-10-17T03:56:12;9.20;99.90
1702;DHT22;848;48.354;10.064;2022-10-17T03:58:40;9.30;99.90
1702;DHT22;848;48.354;10.064;2022-10-17T04:01:08;9.40;99.90
1702;DHT22;848;48.354;10.064;2022-10-17T04:03:35;9.20;99.90
1702;DHT22;848;48.354;10.064;2022-10-17T04:06:03;9.30;99.90
1702;DHT22;848;48.354;10.064;2022-10-17T04:08:31;9.20;99.90
1702;DHT22;848;48.354;10.064;2022-10-17T04:10:59;9.30;99.90
1702;DHT22;848;48.354;10.064;2022-10-17T04:13:28;9.20;99.90
1702;DHT22;848;48.354;10.064;2022-10-17T04:15:56;9.20;99.90
1702;DHT22;848;48.354;10.064;2022-10-17T04:18:24;9.10;99.90
1702;DHT22;848;48.354;10.064;2022-10-17T04:20:51;9.10;99.90
1702;DHT22;848;48.354;10.064;2022-10-17T04:23:18;9.10;99.90
1702;DHT22;848;48.354;10.064;2022-10-17T04:25:45;9.00;99.90
1702;DHT22;848;48.354;10.064;2022-10-17T04:28:12;9.00;99.90
1702;DHT22;848;48.354;10.064;2022-10-17T04:30:40;8.90;99.90
1702;DHT22;848;48.354;10.064;2022-10-17T04:33:07;9.00;99.90
1702;DHT22;848;48.354;10.064;2022-10-17T04:35:34;9.00;99.90
1702;DHT22;848;48.354;10.064;2022-10-17T04:38:01;9.00;99.90
1702;DHT22;848;48.354;10.064;2022-10-17T04:40:28;8.90;99.90
1702;DHT22;848;48.354;10.064;2022-10-17T04:42:55;9.00;99.90
1702;DHT22;848;48.354;10.064;2022-10-17T04:45:21;9.00;99.90
1702;DHT22;848;48.354;10.064;2022-10-17T04:47:50;8.90;99.90
1702;DHT22;848;48.354;10.064;2022-10-17T04:50:17;9.00;99.90
1702;DHT22;848;48.354;10.064;2022-10-17T04:52:44;9.00;99.90
1702;DHT22;848;48.354;10.064;2022-10-17T04:55:10;9.00;99.90
1702;DHT22;848;48.354;10.064;2022-10-17T04:57:37;9.00;99.90
1702;DHT22;848;48.354;10.064;2022-10-17T05:00:05;9.00;99.90
1702;DHT22;848;48.354;10.064;2022-10-17T05:02:34;9.00;99.90
1702;DHT22;848;48.354;10.064;2022-10-17T05:05:02;8.90;99.90
1702;DHT22;848;48.354;10.064;2022-10-17T05:07:29;8.90;99.90
1702;DHT22;848;48.354;10.064;2022-10-17T05:09:56;8.80;99.90
1702;DHT22;848;48.354;10.064;2022-10-17T05:12:23;8.90;99.90
1702;DHT22;848;48.354;10.064;2022-10-17T05:14:50;8.90;99.90
1702;DHT22;848;48.354;10.064;2022-10-17T05:17:17;8.90;99.90
1702;DHT22;848;48.354;10.064;2022-10-17T05:19:44;8.90;99.90
1702;DHT22;848;48.354;10.064;2022-10-17T05:22:12;8.90;99.90
1702;DHT22;848;48.354;10.064;2022-10-17T05:24:39;8.80;99.90
1702;DHT22;848;48.354;10.064;2022-10-17T05:27:06;8.80;99.90
1702;DHT22;848;48.354;10.064;2022-10-17T05:29:33;8.90;99.90
1702;DHT22;848;48.354;10.064;2022-10-17T05:32:00;8.90;99.90
1702;DHT22;848;48.354;10.064;2022-10-17T05:34:27;8.90;99.90
1702;DHT22;848;48.354;10.064;2022-10-17T05:36:54;8.90;99.90
1702;DHT22;848;48.354;10.064;2022-10-17T05:39:22;8.90;99.90
1702;DHT22;848;48.354;10.064;2022-10-17T05:41:49;8.90;99.90
1702;DHT22;848;48.354;10.064;2022-10-17T05:44:17;8.90;99.90
1702;DHT22;848;48.354;10.064;2022-10-17T05:46:43;8.90;99.90
1702;DHT22;848;48.354;10.064;2022-10-17T05:49:10;8.80;99.90
1702;DHT22;848;48.354;10.064;2022-10-17T05:51:37;8.80;99.90
1702;DHT22;848;48.354;10.064;2022-10-17T05:54:05;8.80;99.90
1702;DHT22;848;48.354;10.064;2022-10-17T05:56:33;8.80;99.90
1702;DHT22;848;48.354;10.064;2022-10-17T05:59:00;8.80;99.90
1702;DHT22;848;48.354;10.064;2022-10-17T06:01:27;8.80;99.90
1702;DHT22;848;48.354;10.064;2022-10-17T06:03:54;8.80;99.90
1702;DHT22;848;48.354;10.064;2022-10-17T06:06:21;8.80;99.90
1702;DHT22;848;48.354;10.064;2022-10-17T06:08:48;8.80;99.90
1702;DHT22;848;48.354;10.064;2022-10-17T06:11:15;8.80;99.90
1702;DHT22;848;48.354;10.064;2022-10-17T06:13:43;8.80;99.90
1702;DHT22;848;48.354;10.064;2022-10-17T06:16:10;8.80;99.90
1702;DHT22;848;48.354;10.064;2022-10-17T06:18:37;8.90;99.90
1702;DHT22;848;48.354;10.064;2022-10-17T06:21:06;9.00;99.90
1702;DHT22;848;48.354;10.064;2022-10-17T06:23:33;9.00;99.90
1702;DHT22;848;48.354;10.064;2022-10-17T06:26:01;9.10;99.90
1702;DHT22;848;48.354;10.064;2022-10-17T06:28:28;9.30;99.90
1702;DHT22;848;48.354;10.064;2022-10-17T06:30:56;9.40;99.90
1702;DHT22;848;48.354;10.064;2022-10-17T06:33:23;9.50;99.90
1702;DHT22;848;48.354;10.064;2022-10-17T06:35:51;9.50;99.90
1702;DHT22;848;48.354;10.064;2022-10-17T06:38:18;9.60;99.90
1702;DHT22;848;48.354;10.064;2022-10-17T06:40:45;9.70;99.90
1702;DHT22;848;48.354;10.064;2022-10-17T06:43:12;9.80;99.90
1702;DHT22;848;48.354;10.064;2022-10-17T06:45:39;9.90;99.90
1702;DHT22;848;48.354;10.064;2022-10-17T06:48:08;9.90;99.90
1702;DHT22;848;48.354;10.064;2022-10-17T06:50:35;10.00;99.90
1702;DHT22;848;48.354;10.064;2022-10-17T06:53:02;10.10;99.90
1702;DHT22;848;48.354;10.064;2022-10-17T06:55:30;10.20;99.90
1702;DHT22;848;48.354;10.064;2022-10-17T06:57:57;10.20;99.90
1702;DHT22;848;48.354;10.064;2022-10-17T07:00:24;10.30;99.90
1702;DHT22;848;48.354;10.064;2022-10-17T07:02:52;10.40;99.90
1702;DHT22;848;48.354;10.064;2022-10-17T07:05:20;10.40;99.90
1702;DHT22;848;48.354;10.064;2022-10-17T07:07:47;10.60;99.90
1702;DHT22;848;48.354;10.064;2022-10-17T07:10:14;10.60;99.90
1702;DHT22;848;48.354;10.064;2022-10-17T07:12:41;10.60;99.90
1702;DHT22;848;48.354;10.064;2022-10-17T07:15:10;10.60;99.90
1702;DHT22;848;48.354;10.064;2022-10-17T07:17:37;10.70;99.90
1702;DHT22;848;48.354;10.064;2022-10-17T07:20:04;10.90;99.90
1702;DHT22;848;48.354;10.064;2022-10-17T07:22:33;11.20;99.90
1702;DHT22;848;48.354;10.064;2022-10-17T07:25:00;11.60;99.90
1702;DHT22;848;48.354;10.064;2022-10-17T07:27:26;11.80;99.90
1702;DHT22;848;48.354;10.064;2022-10-17T07:29:53;12.00;99.90
1702;DHT22;848;48.354;10.064;2022-10-17T07:32:20;12.10;99.90
1702;DHT22;848;48.354;10.064;2022-10-17T07:34:47;12.00;99.90
1702;DHT22;848;48.354;10.064;2022-10-17T07:37:14;11.80;99.90
1702;DHT22;848;48.354;10.064;2022-10-17T07:39:43;11.60;99.90
1702;DHT22;848;48.354;10.064;2022-10-17T07:42:10;11.60;99.90
1702;DHT22;848;48.354;10.064;2022-10-17T07:44:37;11.50;99.90
1702;DHT22;848;48.354;10.064;2022-10-17T07:47:03;11.50;99.90
1702;DHT22;848;48.354;10.064;2022-10-17T07:49:30;11.50;99.90
1702;DHT22;848;48.354;10.064;2022-10-17T07:51:57;11.50;99.90
1702;DHT22;848;48.354;10.064;2022-10-17T07:54:24;11.60;99.90
1702;DHT22;848;48.354;10.064;2022-10-17T07:56:52;11.70;99.90
1702;DHT22;848;48.354;10.064;2022-10-17T07:59:19;11.90;99.90
1702;DHT22;848;48.354;10.064;2022-10-17T08:01:46;11.90;99.90
1702;DHT22;848;48.354;10.064;2022-10-17T08:04:13;12.00;99.90
1702;DHT22;848;48.354;10.064;2022-10-17T08:06:41;12.10;99.90
1702;DHT22;848;48.354;10.064;2022-10-17T08:09:08;12.20;99.90
1702;DHT22;848;48.354;10.064;2022-10-17T08:11:35;12.20;99.90
1702;DHT22;848;48.354;10.064;2022-10-17T08:14:03;12.30;99.90
1702;DHT22;848;48.354;10.064;2022-10-17T08:16:30;12.50;99.90
1702;DHT22;848;48.354;10.064;2022-10-17T08:18:57;12.70;99.90
1702;DHT22;848;48.354;10.064;2022-10-17T08:21:24;12.80;99.90
1702;DHT22;848;48.354;10.064;2022-10-17T08:23:51;12.90;99.90
1702;DHT22;848;48.354;10.064;2022-10-17T08:26:18;12.90;99.90
1702;DHT22;848;48.354;10.064;2022-10-17T08:28:45;13.00;99.90
1702;DHT22;848;48.354;10.064;2022-10-17T08:31:15;13.00;99.90
1702;DHT22;848;48.354;10.064;2022-10-17T08:33:44;13.10;99.90
1702;DHT22;848;48.354;10.064;2022-10-17T08:36:12;13.10;99.90
1702;DHT22;848;48.354;10.064;2022-10-17T08:38:39;13.20;99.90
1702;DHT22;848;48.354;10.064;2022-10-17T08:41:13;13.30;99.90
1702;DHT22;848;48.354;10.064;2022-10-17T08:43:52;13.30;99.90
1702;DHT22;848;48.354;10.064;2022-10-17T08:46:28;13.40;99.90
1702;DHT22;848;48.354;10.064;2022-10-17T08:48:58;13.50;99.90
1702;DHT22;848;48.354;10.064;2022-10-17T08:51:30;13.50;99.90
1702;DHT22;848;48.354;10.064;2022-10-17T08:54:05;13.60;99.90
1702;DHT22;848;48.354;10.064;2022-10-17T08:56:43;13.60;99.90
1702;DHT22;848;48.354;10.064;2022-10-17T08:59:11;13.70;99.90
1702;DHT22;848;48.354;10.064;2022-10-17T09:01:44;13.80;99.90
1702;DHT22;848;48.354;10.064;2022-10-17T09:04:34;13.90;99.90
1702;DHT22;848;48.354;10.064;2022-10-17T09:07:08;13.90;99.90
1702;DHT22;848;48.354;10.064;2022-10-17T09:09:41;14.00;99.90
1702;DHT22;848;48.354;10.064;2022-10-17T09:12:16;14.10;99.90
1702;DHT22;848;48.354;10.064;2022-10-17T09:15:00;14.20;99.90
1702;DHT22;848;48.354;10.064;2022-10-17T09:17:37;14.30;99.90
1702;DHT22;848;48.354;10.064;2022-10-17T09:20:10;14.30;99.90
1702;DHT22;848;48.354;10.064;2022-10-17T09:22:41;14.40;99.90
1702;DHT22;848;48.354;10.064;2022-10-17T09:25:12;14.50;99.90
1702;DHT22;848;48.354;10.064;2022-10-17T09:27:44;14.60;99.90
1702;DHT22;848;48.354;10.064;2022-10-17T09:30:28;14.60;99.90
1702;DHT22;848;48.354;10.064;2022-10-17T09:32:58;14.70;99.90
1702;DHT22;848;48.354;10.064;2022-10-17T09:35:26;14.80;99.90
1702;DHT22;848;48.354;10.064;2022-10-17T09:37:54;14.80;99.90
1702;DHT22;848;48.354;10.064;2022-10-17T09:40:25;14.90;99.90
1702;DHT22;848;48.354;10.064;2022-10-17T09:42:52;15.00;99.90
1702;DHT22;848;48.354;10.064;2022-10-17T09:45:21;15.10;99.90
1702;DHT22;848;48.354;10.064;2022-10-17T09:47:59;15.20;99.90
1702;DHT22;848;48.354;10.064;2022-10-17T09:50:30;15.30;99.90
1702;DHT22;848;48.354;10.064;2022-10-17T09:53:01;15.50;99.90
1702;DHT22;848;48.354;10.064;2022-10-17T09:55:37;15.60;99.90
1702;DHT22;848;48.354;10.064;2022-10-17T09:58:06;15.70;99.90
1702;DHT22;848;48.354;10.064;2022-10-17T10:00:35;15.80;99.90
1702;DHT22;848;48.354;10.064;2022-10-17T10:03:14;15.70;99.90
1702;DHT22;848;48.354;10.064;2022-10-17T10:05:56;15.80;99.90
1702;DHT22;848;48.354;10.064;2022-10-17T10:08:26;15.90;99.90
1702;DHT22;848;48.354;10.064;2022-10-17T10:10:57;15.90;99.90
1702;DHT22;848;48.354;10.064;2022-10-17T10:13:26;16.00;99.90
1702;DHT22;848;48.354;10.064;2022-10-17T10:15:53;16.20;99.90
1702;DHT22;848;48.354;10.064;2022-10-17T10:18:30;16.20;99.90
1702;DHT22;848;48.354;10.064;2022-10-17T10:21:05;16.30;99.90
1702;DHT22;848;48.354;10.064;2022-10-17T10:23:33;16.40;99.90
1702;DHT22;848;48.354;10.064;2022-10-17T10:26:17;16.40;99.90
1702;DHT22;848;48.354;10.064;2022-10-17T10:28:52;16.50;99.90
1702;DHT22;848;48.354;10.064;2022-10-17T10:31:26;16.50;99.90
1702;DHT22;848;48.354;10.064;2022-10-17T10:33:55;16.60;99.90
1702;DHT22;848;48.354;10.064;2022-10-17T10:36:22;16.60;99.90
1702;DHT22;848;48.354;10.064;2022-10-17T10:38:54;16.70;99.90
1702;DHT22;848;48.354;10.064;2022-10-17T10:41:22;16.70;99.90
1702;DHT22;848;48.354;10.064;2022-10-17T10:43:53;16.70;99.90
1702;DHT22;848;48.354;10.064;2022-10-17T10:46:22;16.80;99.90
1702;DHT22;848;48.354;10.064;2022-10-17T10:48:52;16.90;99.90
1702;DHT22;848;48.354;10.064;2022-10-17T10:51:26;16.90;99.90
1702;DHT22;848;48.354;10.064;2022-10-17T10:54:00;16.90;99.90
1702;DHT22;848;48.354;10.064;2022-10-17T10:56:32;17.00;99.90
1702;DHT22;848;48.354;10.064;2022-10-17T10:59:03;17.10;99.90
1702;DHT22;848;48.354;10.064;2022-10-17T11:01:39;17.20;99.90
1702;DHT22;848;48.354;10.064;2022-10-17T11:04:21;17.30;99.90
1702;DHT22;848;48.354;10.064;2022-10-17T11:06:54;17.50;99.90
1702;DHT22;848;48.354;10.064;2022-10-17T11:09:28;17.50;99.90
1702;DHT22;848;48.354;10.064;2022-10-17T11:12:00;17.50;99.90
1702;DHT22;848;48.354;10.064;2022-10-17T11:14:37;17.50;99.90
1702;DHT22;848;48.354;10.064;2022-10-17T11:17:11;17.60;99.90
1702;DHT22;848;48.354;10.064;2022-10-17T11:19:44;17.60;99.90
1702;DHT22;848;48.354;10.064;2022-10-17T11:22:15;17.70;99.90
1702;DHT22;848;48.354;10.064;2022-10-17T11:24:50;17.80;99.90
1702;DHT22;848;48.354;10.064;2022-10-17T11:27:22;17.80;99.90
1702;DHT22;848;48.354;10.064;2022-10-17T11:29:50;17.80;99.90
1702;DHT22;848;48.354;10.064;2022-10-17T11:32:20;17.70;99.90
1702;DHT22;848;48.354;10.064;2022-10-17T11:34:52;17.70;99.90
1702;DHT22;848;48.354;10.064;2022-10-17T11:37:24;17.80;99.90
1702;DHT22;848;48.354;10.064;2022-10-17T11:39:54;17.80;99.90
1702;DHT22;848;48.354;10.064;2022-10-17T11:42:26;17.80;99.90
1702;DHT22;848;48.354;10.064;2022-10-17T11:44:57;17.90;99.90
1702;DHT22;848;48.354;10.064;2022-10-17T11:47:42;18.10;99.90
1702;DHT22;848;48.354;10.064;2022-10-17T11:50:19;18.20;99.90
1702;DHT22;848;48.354;10.064;2022-10-17T11:52:53;18.20;99.90
1702;DHT22;848;48.354;10.064;2022-10-17T11:55:23;18.20;99.90
1702;DHT22;848;48.354;10.064;2022-10-17T11:58:09;18.20;99.90
1702;DHT22;848;48.354;10.064;2022-10-17T12:00:50;18.30;99.90
1702;DHT22;848;48.354;10.064;2022-10-17T12:03:33;18.30;99.90
1702;DHT22;848;48.354;10.064;2022-10-17T12:06:09;18.40;99.90
1702;DHT22;848;48.354;10.064;2022-10-17T12:08:51;18.40;99.90
1702;DHT22;848;48.354;10.064;2022-10-17T12:11:29;18.60;99.90
1702;DHT22;848;48.354;10.064;2022-10-17T12:14:00;18.60;99.90
1702;DHT22;848;48.354;10.064;2022-10-17T12:16:39;18.60;99.90
1702;DHT22;848;48.354;10.064;2022-10-17T12:19:25;18.60;99.90
1702;DHT22;848;48.354;10.064;2022-10-17T12:22:18;18.60;99.90
1702;DHT22;848;48.354;10.064;2022-10-17T12:24:55;18.80;99.90
1702;DHT22;848;48.354;10.064;2022-10-17T12:27:35;18.90;99.90
1702;DHT22;848;48.354;10.064;2022-10-17T12:30:06;18.90;99.90
1702;DHT22;848;48.354;10.064;2022-10-17T12:33:02;18.90;99.90
1702;DHT22;848;48.354;10.064;2022-10-17T12:35:32;18.90;99.90
1702;DHT22;848;48.354;10.064;2022-10-17T12:38:23;18.80;99.90
1702;DHT22;848;48.354;10.064;2022-10-17T12:40:59;18.90;99.90
1702;DHT22;848;48.354;10.064;2022-10-17T12:46:54;19.10;99.90
1702;DHT22;848;48.354;10.064;2022-10-17T12:49:37;19.20;99.90
1702;DHT22;848;48.354;10.064;2022-10-17T12:55:05;19.00;99.90
1702;DHT22;848;48.354;10.064;2022-10-17T12:57:38;19.10;99.90
1702;DHT22;848;48.354;10.064;2022-10-17T13:00:16;19.10;99.90
1702;DHT22;848;48.354;10.064;2022-10-17T13:02:44;19.20;99.90
1702;DHT22;848;48.354;10.064;2022-10-17T13:05:15;19.30;99.90
1702;DHT22;848;48.354;10.064;2022-10-17T13:07:44;19.30;99.90
1702;DHT22;848;48.354;10.064;2022-10-17T13:10:22;19.30;99.90
1702;DHT22;848;48.354;10.064;2022-10-17T13:12:59;19.30;99.90
1702;DHT22;848;48.354;10.064;2022-10-17T13:15:27;19.40;99.90
1702;DHT22;848;48.354;10.064;2022-10-17T13:17:56;19.30;99.90
1702;DHT22;848;48.354;10.064;2022-10-17T13:20:24;19.50;99.90
1702;DHT22;848;48.354;10.064;2022-10-17T13:22:53;19.50;99.90
1702;DHT22;848;48.354;10.064;2022-10-17T13:25:22;19.50;99.90
1702;DHT22;848;48.354;10.064;2022-10-17T13:28:03;19.60;99.90
1702;DHT22;848;48.354;10.064;2022-10-17T13:30:32;19.50;99.90
1702;DHT22;848;48.354;10.064;2022-10-17T13:33:00;19.60;99.90
1702;DHT22;848;48.354;10.064;2022-10-17T13:35:29;19.70;99.90
1702;DHT22;848;48.354;10.064;2022-10-17T13:37:58;19.80;99.90
1702;DHT22;848;48.354;10.064;2022-10-17T13:40:28;19.70;99.90
1702;DHT22;848;48.354;10.064;2022-10-17T13:42:58;19.60;99.90
1702;DHT22;848;48.354;10.064;2022-10-17T13:45:29;19.50;99.90
1702;DHT22;848;48.354;10.064;2022-10-17T13:47:57;19.40;99.90
1702;DHT22;848;48.354;10.064;2022-10-17T13:50:30;19.50;99.90
1702;DHT22;848;48.354;10.064;2022-10-17T13:53:16;19.40;99.90
1702;DHT22;848;48.354;10.064;2022-10-17T13:55:51;19.40;99.90
1702;DHT22;848;48.354;10.064;2022-10-17T13:58:19;19.40;99.90
1702;DHT22;848;48.354;10.064;2022-10-17T14:00:47;19.40;99.90
1702;DHT22;848;48.354;10.064;2022-10-17T14:03:18;19.50;99.90
1702;DHT22;848;48.354;10.064;2022-10-17T14:06:13;19.60;99.90
1702;DHT22;848;48.354;10.064;2022-10-17T14:08:52;19.60;99.90
1702;DHT22;848;48.354;10.064;2022-10-17T14:11:26;19.40;99.90
1702;DHT22;848;48.354;10.064;2022-10-17T14:13:57;19.30;99.90
1702;DHT22;848;48.354;10.064;2022-10-17T14:16:25;19.30;99.90
1702;DHT22;848;48.354;10.064;2022-10-17T14:18:54;19.40;99.90
1702;DHT22;848;48.354;10.064;2022-10-17T14:21:24;19.40;99.90
1702;DHT22;848;48.354;10.064;2022-10-17T14:24:11;19.40;99.90
1702;DHT22;848;48.354;10.064;2022-10-17T14:26:46;19.40;99.90
1702;DHT22;848;48.354;10.064;2022-10-17T14:29:21;19.40;99.90
1702;DHT22;848;48.354;10.064;2022-10-17T14:31:49;19.40;99.90
1702;DHT22;848;48.354;10.064;2022-10-17T14:34:21;19.40;99.90
1702;DHT22;848;48.354;10.064;2022-10-17T14:36:51;19.40;99.90
1702;DHT22;848;48.354;10.064;2022-10-17T14:39:19;19.40;99.90
1702;DHT22;848;48.354;10.064;2022-10-17T14:41:49;19.30;99.90
1702;DHT22;848;48.354;10.064;2022-10-17T14:44:22;19.40;99.90
1702;DHT22;848;48.354;10.064;2022-10-17T14:46:53;19.70;99.90
1702;DHT22;848;48.354;10.064;2022-10-17T14:49:30;19.80;99.90
1702;DHT22;848;48.354;10.064;2022-10-17T14:52:29;19.80;99.90
1702;DHT22;848;48.354;10.064;2022-10-17T14:54:57;19.70;99.90
1702;DHT22;848;48.354;10.064;2022-10-17T14:57:40;19.60;99.90
1702;DHT22;848;48.354;10.064;2022-10-17T15:00:13;19.50;99.90
1702;DHT22;848;48.354;10.064;2022-10-17T15:02:41;19.40;99.90
1702;DHT22;848;48.354;10.064;2022-10-17T15:05:08;19.40;99.90
1702;DHT22;848;48.354;10.064;2022-10-17T15:07:37;19.50;99.90
1702;DHT22;848;48.354;10.064;2022-10-17T15:10:05;19.60;99.90
1702;DHT22;848;48.354;10.064;2022-10-17T15:12:32;19.50;99.90
1702;DHT22;848;48.354;10.064;2022-10-17T15:15:02;19.40;99.90
1702;DHT22;848;48.354;10.064;2022-10-17T15:17:30;19.40;99.90
1702;DHT22;848;48.354;10.064;2022-10-17T15:19:59;19.30;99.90
1702;DHT22;848;48.354;10.064;2022-10-17T15:22:25;19.20;99.90
1702;DHT22;848;48.354;10.064;2022-10-17T15:24:52;19.10;99.90
1702;DHT22;848;48.354;10.064;2022-10-17T15:27:20;19.00;99.90
1702;DHT22;848;48.354;10.064;2022-10-17T15:29:48;18.90;99.90
1702;DHT22;848;48.354;10.064;2022-10-17T15:32:16;18.80;99.90
1702;DHT22;848;48.354;10.064;2022-10-17T15:34:44;18.70;99.90
1702;DHT22;848;48.354;10.064;2022-10-17T15:37:18;18.60;99.90
1702;DHT22;848;48.354;10.064;2022-10-17T15:39:47;18.50;99.90
1702;DHT22;848;48.354;10.064;2022-10-17T15:42:18;18.50;99.90
1702;DHT22;848;48.354;10.064;2022-10-17T15:44:45;18.50;99.90
1702;DHT22;848;48.354;10.064;2022-10-17T15:47:21;18.40;99.90
1702;DHT22;848;48.354;10.064;2022-10-17T15:49:50;18.20;99.90
1702;DHT22;848;48.354;10.064;2022-10-17T15:52:17;18.20;99.90
1702;DHT22;848;48.354;10.064;2022-10-17T15:54:44;18.10;99.90
1702;DHT22;848;48.354;10.064;2022-10-17T15:57:15;18.00;99.90
1702;DHT22;848;48.354;10.064;2022-10-17T15:59:44;17.90;99.90
1702;DHT22;848;48.354;10.064;2022-10-17T16:02:13;17.80;99.90
1702;DHT22;848;48.354;10.064;2022-10-17T16:04:40;17.80;99.90
1702;DHT22;848;48.354;10.064;2022-10-17T16:07:09;17.70;99.90
1702;DHT22;848;48.354;10.064;2022-10-17T16:09:36;17.60;99.90
1702;DHT22;848;48.354;10.064;2022-10-17T16:12:04;17.60;99.90
1702;DHT22;848;48.354;10.064;2022-10-17T16:14:32;17.50;99.90
1702;DHT22;848;48.354;10.064;2022-10-17T16:16:59;17.50;99.90
1702;DHT22;848;48.354;10.064;2022-10-17T16:19:26;17.30;99.90
1702;DHT22;848;48.354;10.064;2022-10-17T16:21:55;17.30;99.90
1702;DHT22;848;48.354;10.064;2022-10-17T16:24:24;17.20;99.90
1702;DHT22;848;48.354;10.064;2022-10-17T16:26:52;17.10;99.90
1702;DHT22;848;48.354;10.064;2022-10-17T16:29:19;17.10;99.90
1702;DHT22;848;48.354;10.064;2022-10-17T16:31:46;17.00;99.90
1702;DHT22;848;48.354;10.064;2022-10-17T16:34:14;17.00;99.90
1702;DHT22;848;48.354;10.064;2022-10-17T16:36:42;16.90;99.90
1702;DHT22;848;48.354;10.064;2022-10-17T16:39:09;16.90;99.90